Time;durP1;ratioP1;P1;durP2;ratioP2;P2;SDS_P1;SDS_P2;PMS_P1;PMS_P2;Temp;Humidity;BMP_temperature;BMP_pressure;BME280_temperature;BME280_humidity;BME280_pressure;Samples;Min_cycle;Max_cycle;Signal;HPM_P1;HPM_P2
2022/12/17 13:06:57;;;;;;;63.15;30.23;;;0.40;99.90;;;;;;4992056;28;20049;-74
2022/12/17 13:09:26;;;;;;;66.07;31.77;;;0.40;99.90;;;;;;5020449;28;20384;-76
2022/12/17 13:12:01;;;;;;;61.92;30.73;;;0.30;99.90;;;;;;5020885;28;20037;-76
2022/12/17 13:14:35;;;;;;;57.95;28.50;;;1.80;99.90;;;;;;5011067;28;20041;-75
2022/12/17 13:17:24;;;;;;;59.28;29.60;;;0.40;99.90;;;;;;4989257;28;20426;-75
2022/12/17 13:19:56;;;;;;;57.70;29.77;;;0.40;99.90;;;;;;5032432;28;20034;-76
2022/12/17 13:22:21;;;;;;;68.18;32.08;;;0.50;99.90;;;;;;5020395;28;20041;-74
2022/12/17 13:24:49;;;;;;;64.68;30.73;;;0.60;99.90;;;;;;5030392;28;20076;-74
2022/12/17 13:27:34;;;;;;;63.03;31.05;;;0.70;99.90;;;;;;5017016;28;20413;-75
2022/12/17 13:30:28;;;;;;;62.97;30.58;;;0.70;99.90;;;;;;5051342;28;20044;-74
2022/12/17 13:33:12;;;;;;;61.30;29.55;;;0.70;99.90;;;;;;5051503;28;20037;-75
2022/12/17 13:36:07;;;;;;;63.88;31.35;;;0.70;99.90;;;;;;5005612;28;20510;-75
2022/12/17 13:38:49;;;;;;;61.17;30.15;;;0.70;99.90;;;;;;4974474;28;20050;-75
2022/12/17 13:41:21;;;;;;;62.42;31.30;;;0.60;99.90;;;;;;4995099;28;20046;-75
2022/12/17 13:43:53;;;;;;;62.13;30.60;;;0.60;99.90;;;;;;5011728;28;20050;-75
2022/12/17 13:46:26;;;;;;;61.10;32.10;;;0.60;99.90;;;;;;4994533;28;20045;-75
2022/12/17 13:48:52;;;;;;;;;;;0.60;99.90;;;;;;5028991;28;20041;-75
2022/12/17 13:51:20;;;;;;;62.05;30.67;;;0.60;99.90;;;;;;5014253;28;19960;-75
2022/12/17 13:53:57;;;;;;;61.38;30.88;;;0.60;99.90;;;;;;5023339;28;20045;-75
2022/12/17 13:56:28;;;;;;;58.97;30.45;;;1.10;99.90;;;;;;5014020;28;20037;-75
2022/12/17 13:58:55;;;;;;;64.10;31.00;;;0.50;99.90;;;;;;4991731;28;20039;-74
2022/12/17 14:01:21;;;;;;;64.35;31.98;;;1.10;99.90;;;;;;4986228;28;20050;-74
2022/12/17 14:03:52;;;;;;;61.42;30.38;;;0.60;99.90;;;;;;4994884;28;20042;-76
2022/12/17 14:06:23;;;;;;;62.22;30.45;;;0.60;99.90;;;;;;5009962;28;20064;-76
2022/12/17 14:08:52;;;;;;;63.67;30.63;;;0.60;99.90;;;;;;4990917;28;20046;-75
2022/12/17 14:14:34;;;;;;;63.15;30.38;;;0.60;99.90;;;;;;4990833;28;20126;-75
2022/12/17 14:17:00;;;;;;;63.30;30.67;;;0.70;99.90;;;;;;5020719;28;20050;-75
2022/12/17 14:19:27;;;;;;;61.03;30.13;;;1.30;99.90;;;;;;5012255;28;20033;-73
2022/12/17 14:21:54;;;;;;;61.17;30.95;;;1.20;99.90;;;;;;4994634;28;20041;-75
2022/12/17 14:24:25;;;;;;;61.63;30.25;;;0.80;99.90;;;;;;5010560;28;20042;-76
2022/12/17 14:27:00;;;;;;;60.55;30.65;;;0.90;99.90;;;;;;5010568;28;20112;-75
2022/12/17 14:29:30;;;;;;;62.03;30.83;;;0.50;99.90;;;;;;5010582;28;20041;-74
2022/12/17 14:31:59;;;;;;;58.17;29.90;;;0.40;99.90;;;;;;5010747;28;20034;-75
2022/12/17 14:34:25;;;;;;;66.35;31.45;;;0.30;99.90;;;;;;5021712;28;20049;-74
2022/12/17 14:36:58;;;;;;;62.67;31.20;;;0.20;99.90;;;;;;5030179;28;20050;-74
2022/12/17 14:39:31;;;;;;;64.13;29.60;;;0.20;99.90;;;;;;5013096;28;20038;-76
2022/12/17 14:42:25;;;;;;;57.97;29.08;;;0.10;99.90;;;;;;5017660;28;20072;-74
2022/12/17 14:44:53;;;;;;;57.13;28.17;;;0.00;99.90;;;;;;5004191;28;20140;-76
2022/12/17 14:47:21;;;;;;;62.70;30.52;;;-0.10;99.90;;;;;;5020486;28;20053;-75
2022/12/17 14:50:16;;;;;;;60.03;28.88;;;-0.10;99.90;;;;;;5002342;28;20073;-75
2022/12/17 14:52:52;;;;;;;61.92;29.50;;;-0.20;99.90;;;;;;5004771;28;20057;-75
2022/12/17 14:55:37;;;;;;;64.13;28.95;;;-0.30;99.90;;;;;;5018532;28;20069;-73
2022/12/17 14:58:22;;;;;;;60.08;29.20;;;-0.30;99.90;;;;;;5026028;28;20037;-75
2022/12/17 15:01:09;;;;;;;62.65;29.10;;;-0.40;99.90;;;;;;5018524;28;20061;-75
2022/12/17 15:03:45;;;;;;;64.53;29.85;;;-0.40;99.90;;;;;;5021235;28;20521;-75
2022/12/17 15:06:15;;;;;;;58.90;28.05;;;-0.50;99.90;;;;;;5006816;28;20103;-74
2022/12/17 15:08:46;;;;;;;63.97;29.38;;;0.10;99.90;;;;;;5024363;28;20554;-76
2022/12/17 15:11:15;;;;;;;67.30;29.10;;;0.10;99.90;;;;;;5001952;28;20124;-75
2022/12/17 15:13:41;;;;;;;67.88;30.02;;;-0.50;99.90;;;;;;5018293;28;20141;-74
2022/12/17 15:16:07;;;;;;;61.10;29.83;;;-0.20;99.90;;;;;;5024827;28;20060;-75
2022/12/17 15:18:33;;;;;;;65.32;30.23;;;-0.60;99.90;;;;;;5009281;28;20033;-76
2022/12/17 15:20:59;;;;;;;58.08;27.85;;;-0.70;99.90;;;;;;5000478;28;20061;-75
2022/12/17 15:23:25;;;;;;;60.83;28.42;;;-0.70;99.90;;;;;;5019680;28;20037;-74
2022/12/17 15:25:52;;;;;;;67.07;31.08;;;-0.10;99.90;;;;;;5005676;28;20423;-74
2022/12/17 15:28:19;;;;;;;65.05;28.85;;;-0.70;99.90;;;;;;5006232;28;20060;-75
2022/12/17 15:30:46;;;;;;;63.53;29.27;;;-0.80;99.90;;;;;;5020857;28;20095;-73
2022/12/17 15:33:12;;;;;;;66.07;29.58;;;-0.70;99.90;;;;;;5025821;28;20495;-75
2022/12/17 15:35:38;;;;;;;71.30;32.47;;;-0.60;99.90;;;;;;5008392;28;20067;-74
2022/12/17 15:38:05;;;;;;;71.07;30.70;;;-0.90;99.90;;;;;;5021663;28;20510;-76
2022/12/17 15:40:31;;;;;;;64.60;30.30;;;-0.80;99.90;;;;;;5021318;28;20041;-75
2022/12/17 15:43:10;;;;;;;62.60;28.23;;;-0.90;99.90;;;;;;5005405;28;20035;-75
2022/12/17 15:45:44;;;;;;;67.70;30.02;;;-0.60;99.90;;;;;;5026269;28;20621;-74
2022/12/17 15:48:11;;;;;;;63.08;27.48;;;-0.90;99.90;;;;;;5026790;28;20375;-74
2022/12/17 15:50:37;;;;;;;68.43;29.15;;;-0.90;99.90;;;;;;5023191;28;20037;-75
2022/12/17 15:53:03;;;;;;;65.00;27.88;;;-0.90;99.90;;;;;;5024231;28;20043;-75
2022/12/17 15:55:32;;;;;;;66.32;28.58;;;-0.50;99.90;;;;;;5023289;28;20394;-75
2022/12/17 15:57:58;;;;;;;66.15;28.23;;;-1.00;99.90;;;;;;5026514;28;20041;-74
2022/12/17 16:00:24;;;;;;;71.97;29.23;;;-1.00;99.90;;;;;;5007994;28;20045;-74
2022/12/17 16:02:50;;;;;;;58.78;26.98;;;-1.00;99.90;;;;;;5006898;28;20128;-74
2022/12/17 16:05:16;;;;;;;70.78;27.77;;;-1.00;99.90;;;;;;5025855;28;20114;-75
2022/12/17 16:07:42;;;;;;;70.03;28.33;;;-1.00;99.90;;;;;;5044680;28;20041;-75
2022/12/17 16:10:10;;;;;;;66.78;28.20;;;-1.10;99.90;;;;;;5028673;28;20037;-75
2022/12/17 16:12:36;;;;;;;73.88;28.92;;;-1.20;99.90;;;;;;5007166;28;20083;-75
2022/12/17 16:15:02;;;;;;;67.03;27.25;;;-1.10;99.90;;;;;;5021290;28;20041;-73
2022/12/17 16:17:28;;;;;;;66.32;27.33;;;-1.10;99.90;;;;;;5011177;28;20037;-74
2022/12/17 16:19:54;;;;;;;69.82;27.45;;;-1.10;99.90;;;;;;4995106;28;20052;-73
2022/12/17 16:22:20;;;;;;;65.57;27.08;;;-1.00;99.90;;;;;;5003846;28;20526;-75
2022/12/17 16:24:46;;;;;;;63.55;25.40;;;-0.90;99.90;;;;;;5004654;28;20041;-75
2022/12/17 16:27:12;;;;;;;66.35;26.10;;;-1.20;99.90;;;;;;5023075;28;20475;-75
2022/12/17 16:29:38;;;;;;;65.45;27.27;;;-1.20;99.90;;;;;;5008069;28;20111;-75
2022/12/17 16:32:05;;;;;;;62.03;25.35;;;-0.30;99.90;;;;;;5025850;28;20398;-75
2022/12/17 16:34:32;;;;;;;63.28;25.23;;;-1.20;99.90;;;;;;5021377;28;20594;-75
2022/12/17 16:36:59;;;;;;;64.45;26.25;;;-0.20;99.90;;;;;;5004978;28;20087;-73
2022/12/17 16:39:25;;;;;;;68.72;27.17;;;-1.30;99.90;;;;;;5006203;28;20046;-75
2022/12/17 16:41:50;;;;;;;66.28;26.02;;;-1.30;99.90;;;;;;5003077;28;20159;-74
2022/12/17 16:44:16;;;;;;;72.53;26.98;;;-1.30;99.90;;;;;;5023760;28;20495;-74
2022/12/17 16:46:43;;;;;;;73.32;28.70;;;-1.30;99.90;;;;;;4994579;28;20048;-74
2022/12/17 16:49:15;;;;;;;71.18;26.83;;;-1.20;99.90;;;;;;5005379;28;20482;-75
2022/12/17 16:51:47;;;;;;;78.60;29.13;;;-1.30;99.90;;;;;;5021247;28;20045;-75
2022/12/17 16:54:15;;;;;;;67.28;26.90;;;-2.00;99.90;;;;;;5025553;28;20469;-75
2022/12/17 16:56:43;;;;;;;70.30;27.38;;;-1.30;99.90;;;;;;5023490;28;20041;-75
2022/12/17 16:59:10;;;;;;;74.90;28.30;;;-1.30;99.90;;;;;;5027708;28;20041;-75
2022/12/17 17:01:37;;;;;;;74.78;28.42;;;-1.00;99.90;;;;;;5003096;28;20502;-73
2022/12/17 17:04:05;;;;;;;74.97;28.35;;;-1.30;99.90;;;;;;5026806;28;20043;-74
2022/12/17 17:06:31;;;;;;;73.80;28.67;;;-1.40;99.90;;;;;;5025147;28;20050;-76
2022/12/17 17:09:01;;;;;;;72.43;27.70;;;-1.40;99.90;;;;;;5023404;28;20521;-74
2022/12/17 17:11:27;;;;;;;76.47;28.38;;;-1.30;99.90;;;;;;5024588;28;20103;-74
2022/12/17 17:13:53;;;;;;;70.40;26.88;;;-1.40;99.90;;;;;;5008478;28;20037;-73
2022/12/17 17:16:22;;;;;;;76.70;29.27;;;-1.40;99.90;;;;;;5023423;28;20151;-75
2022/12/17 17:18:48;;;;;;;71.32;26.83;;;0.20;99.90;;;;;;4993920;28;20240;-75
2022/12/17 17:21:19;;;;;;;71.63;25.90;;;-1.40;99.90;;;;;;5008546;28;20037;-74
2022/12/17 17:23:46;;;;;;;73.60;26.15;;;-1.50;99.90;;;;;;5021439;28;20041;-75
2022/12/17 17:26:13;;;;;;;71.10;25.73;;;-1.50;99.90;;;;;;5013511;28;20045;-75
2022/12/17 17:28:39;;;;;;;71.13;25.50;;;-1.80;99.90;;;;;;5007003;28;20045;-74
2022/12/17 17:31:07;;;;;;;65.90;24.85;;;-1.50;99.90;;;;;;5039165;28;20438;-75
2022/12/17 17:33:35;;;;;;;65.75;24.02;;;-1.50;99.90;;;;;;5022802;28;20049;-75
2022/12/17 17:36:03;;;;;;;61.00;24.42;;;-0.90;99.90;;;;;;5026445;28;20037;-75
2022/12/17 17:38:29;;;;;;;69.53;24.55;;;-1.50;99.90;;;;;;5023815;28;20041;-74
2022/12/17 17:41:00;;;;;;;68.95;25.67;;;-1.50;99.90;;;;;;5006203;28;20064;-73
2022/12/17 17:43:26;;;;;;;64.13;23.27;;;-1.50;99.90;;;;;;5028984;28;20044;-75
2022/12/17 17:45:52;;;;;;;70.80;26.00;;;-1.50;99.90;;;;;;5009111;28;20498;-75
2022/12/17 17:48:18;;;;;;;69.57;24.75;;;-1.50;99.90;;;;;;5005124;28;20052;-75
2022/12/17 17:50:57;;;;;;;75.70;25.92;;;-1.50;99.90;;;;;;5025937;28;20049;-74
2022/12/17 17:53:22;;;;;;;70.93;24.92;;;-1.60;99.90;;;;;;5007260;28;20682;-74
2022/12/17 17:55:48;;;;;;;66.88;25.20;;;-1.60;99.90;;;;;;5024087;28;20124;-75
2022/12/17 17:58:14;;;;;;;68.65;25.85;;;-0.90;99.90;;;;;;5038901;28;20403;-74
2022/12/17 18:00:39;;;;;;;64.45;25.20;;;-1.50;99.90;;;;;;5000331;28;20358;-74
2022/12/17 18:03:05;;;;;;;68.03;24.45;;;-0.90;99.90;;;;;;5025588;28;20491;-73
2022/12/17 18:05:37;;;;;;;78.10;26.25;;;-1.60;99.90;;;;;;4991495;28;20034;-75
2022/12/17 18:08:02;;;;;;;74.30;26.65;;;-1.50;99.90;;;;;;5023392;28;20065;-74
2022/12/17 18:10:28;;;;;;;71.57;26.65;;;-1.60;99.90;;;;;;5019760;28;20123;-74
2022/12/17 18:15:41;;;;;;;73.57;26.67;;;-1.50;99.90;;;;;;5021922;28;20057;-75
2022/12/17 18:18:07;;;;;;;72.38;25.35;;;;;;;;;;5024727;28;20033;-75
2022/12/17 18:20:33;;;;;;;75.47;25.52;;;-1.50;99.90;;;;;;5021610;28;20029;-74
2022/12/17 18:22:58;;;;;;;64.00;26.13;;;-0.90;99.90;;;;;;5008422;28;20071;-75
2022/12/17 18:25:24;;;;;;;62.63;25.00;;;-1.50;99.90;;;;;;5023450;28;20069;-73
2022/12/17 18:27:53;;;;;;;72.90;24.88;;;-1.50;99.90;;;;;;4993971;28;20487;-75
2022/12/17 18:30:19;;;;;;;62.90;25.15;;;-1.60;99.90;;;;;;5003524;28;20419;-74
2022/12/17 18:32:45;;;;;;;62.90;25.42;;;-1.60;99.90;;;;;;5006816;28;20049;-76
2022/12/17 18:35:11;;;;;;;75.90;26.42;;;-1.60;99.90;;;;;;5001389;28;20099;-73
2022/12/17 18:37:37;;;;;;;65.75;24.25;;;-1.60;99.90;;;;;;4992690;28;20041;-73
2022/12/17 18:40:04;;;;;;;70.07;26.08;;;-1.60;99.90;;;;;;5007529;28;20041;-75
2022/12/17 18:45:14;;;;;;;75.93;27.52;;;-0.90;99.90;;;;;;5009156;28;20045;-73
2022/12/17 18:47:41;;;;;;;69.95;25.48;;;-1.60;99.90;;;;;;5022338;28;20045;-75
2022/12/17 18:50:08;;;;;;;67.95;25.38;;;-1.70;99.90;;;;;;5025445;28;20567;-75
2022/12/17 18:52:36;;;;;;;61.50;24.33;;;-1.70;99.90;;;;;;4987107;28;20240;-73
2022/12/17 18:55:02;;;;;;;75.57;27.05;;;-1.70;99.90;;;;;;5020453;28;20553;-75
2022/12/17 18:57:28;;;;;;;68.10;25.83;;;-0.70;99.90;;;;;;5021143;28;20125;-75
2022/12/17 18:59:53;;;;;;;73.53;27.23;;;-1.70;99.90;;;;;;5018764;28;20037;-73
2022/12/17 19:02:19;;;;;;;74.20;27.75;;;-1.70;99.90;;;;;;4998442;28;20049;-73
2022/12/17 19:04:45;;;;;;;69.10;26.42;;;-1.70;99.90;;;;;;4983593;28;20052;-73
2022/12/17 19:07:10;;;;;;;63.90;25.30;;;-1.70;99.90;;;;;;5019374;28;20030;-74
2022/12/17 19:09:39;;;;;;;66.70;25.88;;;-1.80;99.90;;;;;;5001230;28;20041;-74
2022/12/17 19:12:08;;;;;;;68.05;27.30;;;-1.10;99.90;;;;;;5015163;28;20136;-73
2022/12/17 19:14:34;;;;;;;69.13;25.88;;;-1.70;99.90;;;;;;5012981;28;20049;-74
2022/12/17 19:17:00;;;;;;;76.25;26.65;;;-1.70;99.90;;;;;;5003587;28;20514;-74
2022/12/17 19:19:26;;;;;;;72.50;27.85;;;-1.70;99.90;;;;;;5020704;28;20041;-75
2022/12/17 19:21:58;;;;;;;71.68;28.73;;;-1.70;99.90;;;;;;5002288;28;20259;-75
2022/12/17 19:24:24;;;;;;;72.30;28.25;;;-1.10;99.90;;;;;;5018193;28;21894;-74
2022/12/17 19:26:51;;;;;;;74.82;30.67;;;-1.80;99.90;;;;;;5023708;28;20095;-75
2022/12/17 19:29:18;;;;;;;67.47;27.85;;;-1.80;99.90;;;;;;5024763;28;20502;-76
2022/12/17 19:31:44;;;;;;;76.18;29.42;;;-1.30;99.90;;;;;;5006422;28;20042;-75
2022/12/17 19:34:14;;;;;;;72.95;30.40;;;-1.80;99.90;;;;;;5003752;28;20064;-75
2022/12/17 19:36:41;;;;;;;69.68;28.77;;;-1.80;99.90;;;;;;5022212;28;20495;-75
2022/12/17 19:39:10;;;;;;;66.95;28.58;;;-1.70;99.90;;;;;;5007054;28;20045;-75
2022/12/17 19:41:37;;;;;;;71.55;29.33;;;-1.80;99.90;;;;;;5019267;28;20120;-75
2022/12/17 19:44:09;;;;;;;72.35;30.88;;;-1.90;99.90;;;;;;5040208;28;20045;-75
2022/12/17 19:46:35;;;;;;;71.43;30.30;;;-1.70;99.90;;;;;;5022220;28;20088;-74
2022/12/17 19:49:02;;;;;;;74.15;30.05;;;-1.70;99.90;;;;;;5001755;28;20069;-74
2022/12/17 19:51:29;;;;;;;76.78;30.75;;;-1.70;99.90;;;;;;5019062;28;20412;-74
2022/12/17 19:53:55;;;;;;;70.00;29.35;;;-2.20;99.90;;;;;;5020051;28;20042;-73
2022/12/17 19:56:26;;;;;;;73.22;30.63;;;-1.70;99.90;;;;;;5019232;28;20038;-74
2022/12/17 19:58:59;;;;;;;68.93;30.55;;;-1.80;99.90;;;;;;5020373;28;20087;-75
2022/12/17 20:01:29;;;;;;;70.72;29.75;;;-2.60;99.90;;;;;;5022949;28;20207;-74
2022/12/17 20:03:55;;;;;;;72.82;30.30;;;-1.70;99.90;;;;;;5023933;28;20041;-74
2022/12/17 20:06:24;;;;;;;75.03;30.45;;;-1.60;99.90;;;;;;5015646;28;20523;-74
2022/12/17 20:08:50;;;;;;;77.40;32.97;;;-1.80;99.90;;;;;;5004200;28;20053;-74
2022/12/17 20:11:31;;;;;;;72.70;31.48;;;-1.80;99.90;;;;;;5024381;28;20095;-74
2022/12/17 20:14:03;;;;;;;67.15;29.88;;;-1.80;99.90;;;;;;5025230;28;20033;-74
2022/12/17 20:16:31;;;;;;;68.65;30.17;;;-1.80;99.90;;;;;;5015073;28;20044;-76
2022/12/17 20:19:01;;;;;;;69.10;29.73;;;-1.80;99.90;;;;;;5023769;28;20445;-76
2022/12/17 20:21:27;;;;;;;65.95;29.35;;;-2.50;99.90;;;;;;4986890;28;20129;-76
2022/12/17 20:23:52;;;;;;;67.03;29.45;;;-1.90;99.90;;;;;;5021910;28;20064;-74
2022/12/17 20:26:18;;;;;;;70.15;31.33;;;-1.90;99.90;;;;;;5018029;28;20046;-73
2022/12/17 20:28:45;;;;;;;72.55;31.38;;;-1.90;99.90;;;;;;5007374;28;20198;-75
2022/12/17 20:31:13;;;;;;;73.45;32.40;;;-1.90;99.90;;;;;;5024132;28;20133;-77
2022/12/17 20:33:39;;;;;;;69.07;31.35;;;-2.30;99.90;;;;;;5022853;28;20511;-73
2022/12/17 20:36:09;;;;;;;73.45;33.50;;;-1.40;99.90;;;;;;5024937;28;20052;-73
2022/12/17 20:38:36;;;;;;;71.07;32.15;;;-1.90;99.90;;;;;;5022537;28;20122;-75
2022/12/17 20:41:11;;;;;;;75.97;33.70;;;-0.50;99.90;;;;;;5021770;28;20065;-74
2022/12/17 20:43:40;;;;;;;76.68;32.95;;;-1.90;99.90;;;;;;5023644;28;21180;-74
2022/12/17 20:46:11;;;;;;;78.40;34.28;;;-2.00;99.90;;;;;;5021400;28;20510;-75
2022/12/17 20:48:41;;;;;;;77.32;34.33;;;-1.90;99.90;;;;;;5017650;28;20053;-75
2022/12/17 20:51:11;;;;;;;73.78;33.20;;;-0.40;99.90;;;;;;5019623;28;20060;-75
2022/12/17 20:53:37;;;;;;;71.75;33.15;;;-2.00;99.90;;;;;;5021614;28;20073;-73
2022/12/17 20:56:09;;;;;;;83.85;34.08;;;-2.00;99.90;;;;;;5022087;28;20530;-74
2022/12/17 20:58:36;;;;;;;78.90;34.78;;;-2.00;99.90;;;;;;5020096;28;20084;-74
2022/12/17 21:01:07;;;;;;;73.60;32.85;;;-1.70;99.90;;;;;;5006900;28;20057;-75
2022/12/17 21:03:33;;;;;;;77.72;33.35;;;-2.40;99.90;;;;;;5023759;28;20041;-74
2022/12/17 21:06:08;;;;;;;71.60;32.40;;;-2.00;99.90;;;;;;5005285;28;20083;-73
2022/12/17 21:08:34;;;;;;;75.07;32.40;;;-2.00;99.90;;;;;;5020105;28;20065;-72
2022/12/17 21:11:03;;;;;;;73.32;32.40;;;-2.10;99.90;;;;;;5020805;28;20042;-73
2022/12/17 21:13:29;;;;;;;73.70;32.97;;;-2.40;99.90;;;;;;5005885;28;20037;-75
2022/12/17 21:16:03;;;;;;;80.25;35.50;;;-2.00;99.90;;;;;;4990549;28;20078;-74
2022/12/17 21:18:30;;;;;;;78.32;34.22;;;-2.10;99.90;;;;;;5005192;28;20047;-73
2022/12/17 21:21:04;;;;;;;78.75;33.78;;;-2.10;99.90;;;;;;5005568;28;20045;-73
2022/12/17 21:23:31;;;;;;;68.60;31.73;;;-2.10;99.90;;;;;;5021685;28;20187;-74
2022/12/17 21:26:08;;;;;;;80.82;34.70;;;-2.10;99.90;;;;;;5021579;28;20068;-74
2022/12/17 21:28:35;;;;;;;80.55;33.45;;;-2.10;99.90;;;;;;5021137;28;20496;-74
2022/12/17 21:31:01;;;;;;;76.78;34.20;;;-2.10;99.90;;;;;;5020350;28;20439;-75
2022/12/17 21:33:27;;;;;;;75.60;32.75;;;-2.10;99.90;;;;;;5019904;28;20484;-74
2022/12/17 21:36:01;;;;;;;73.72;31.33;;;-0.60;99.90;;;;;;4668861;28;9999726;-75
2022/12/17 21:38:32;;;;;;;70.25;31.85;;;-2.40;99.90;;;;;;5015364;28;20037;-74
2022/12/17 21:41:11;;;;;;;71.18;31.83;;;-2.10;99.90;;;;;;5019407;28;20050;-74
2022/12/17 21:43:38;;;;;;;72.93;29.95;;;-2.00;99.90;;;;;;5019325;28;20050;-74
2022/12/17 21:46:07;;;;;;;74.43;31.77;;;-2.10;99.90;;;;;;5025354;28;20069;-73
2022/12/17 21:48:34;;;;;;;71.15;31.08;;;-2.10;99.90;;;;;;5021847;28;20034;-73
2022/12/17 21:51:03;;;;;;;78.78;33.75;;;-2.10;99.90;;;;;;5017349;28;20057;-73
2022/12/17 21:53:29;;;;;;;71.95;29.65;;;-1.20;99.90;;;;;;5001222;28;20115;-73
2022/12/17 21:56:07;;;;;;;79.82;33.17;;;-2.10;99.90;;;;;;5019398;28;20041;-75
2022/12/17 21:58:33;;;;;;;82.70;33.47;;;-2.20;99.90;;;;;;5020525;28;20049;-74
2022/12/17 22:01:18;;;;;;;81.78;32.85;;;-1.40;99.90;;;;;;5017223;28;20038;-75
2022/12/17 22:03:47;;;;;;;77.55;32.22;;;-2.20;99.90;;;;;;5015742;28;20180;-74
2022/12/17 22:06:15;;;;;;;79.35;31.67;;;-2.20;99.90;;;;;;5003788;28;20042;-73
2022/12/17 22:08:45;;;;;;;77.38;31.95;;;-2.20;99.90;;;;;;5020502;28;20057;-73
2022/12/17 22:11:12;;;;;;;82.88;32.40;;;-2.20;99.90;;;;;;5018544;28;20575;-74
2022/12/17 22:16:25;;;;;;;81.00;32.00;;;-1.70;99.90;;;;;;5020455;28;20073;-73
2022/12/17 22:18:54;;;;;;;78.32;31.83;;;-2.90;99.90;;;;;;5017740;28;20102;-74
2022/12/17 22:21:20;;;;;;;78.15;30.67;;;-2.00;99.90;;;;;;4993683;28;20096;-73
2022/12/17 22:23:49;;;;;;;86.43;34.72;;;-1.60;99.90;;;;;;5014215;28;20411;-74
2022/12/17 22:26:17;;;;;;;80.32;32.85;;;-2.30;99.90;;;;;;5016188;28;20029;-74
2022/12/17 22:28:47;;;;;;;81.75;32.13;;;-2.30;99.90;;;;;;4999213;28;20499;-73
2022/12/17 22:34:05;;;;;;;79.65;30.73;;;-2.50;99.90;;;;;;5013107;28;20141;-74
2022/12/17 22:36:32;;;;;;;77.22;30.42;;;-2.80;99.90;;;;;;5018504;28;20049;-74
2022/12/17 22:39:01;;;;;;;89.05;35.10;;;-1.70;99.90;;;;;;5019455;28;20168;-74
2022/12/17 22:44:14;;;;;;;80.72;31.42;;;-2.20;99.90;;;;;;5012278;28;20085;-74
2022/12/17 22:46:40;;;;;;;97.40;35.88;;;;;;;;;;5015259;28;20160;-75
2022/12/17 22:49:06;;;;;;;87.38;32.97;;;-2.30;99.90;;;;;;5002638;28;20395;-74
2022/12/17 22:51:35;;;;;;;81.32;32.10;;;-2.40;99.90;;;;;;5017396;28;20048;-74
2022/12/17 22:54:07;;;;;;;83.20;31.73;;;-2.30;99.90;;;;;;5018203;28;20053;-74
2022/12/17 22:56:34;;;;;;;87.05;31.92;;;-4.20;99.90;;;;;;4997255;28;20408;-74
2022/12/17 22:59:00;;;;;;;73.80;29.75;;;-2.20;99.90;;;;;;5016645;28;20116;-73
2022/12/17 23:01:29;;;;;;;76.28;29.83;;;-2.30;99.90;;;;;;5018012;28;20073;-73
2022/12/17 23:03:56;;;;;;;71.70;28.77;;;-2.30;99.90;;;;;;5022104;28;20041;-74
2022/12/17 23:06:22;;;;;;;66.85;28.33;;;-2.30;99.90;;;;;;5018536;28;20044;-74
2022/12/17 23:08:49;;;;;;;70.25;28.52;;;-2.40;99.90;;;;;;5016379;28;20278;-74
2022/12/17 23:11:20;;;;;;;67.50;26.63;;;-2.40;99.90;;;;;;5016138;28;20049;-74
2022/12/17 23:13:46;;;;;;;74.05;28.40;;;-2.40;99.90;;;;;;5015332;28;20034;-73
2022/12/17 23:16:13;;;;;;;75.20;27.67;;;-2.40;99.90;;;;;;4999775;28;20033;-73
2022/12/17 23:18:40;;;;;;;65.22;26.80;;;-2.50;99.90;;;;;;5015758;28;20521;-76
2022/12/17 23:21:22;;;;;;;78.45;28.90;;;-2.50;99.90;;;;;;5005030;28;20065;-75
2022/12/17 23:23:52;;;;;;;72.57;28.55;;;-2.50;99.90;;;;;;4992743;28;20103;-74
2022/12/17 23:26:22;;;;;;;76.93;28.55;;;-2.30;99.90;;;;;;5002193;28;20140;-73
2022/12/17 23:28:52;;;;;;;73.68;30.48;;;-2.60;99.90;;;;;;5003378;28;20085;-74
2022/12/17 23:31:19;;;;;;;76.63;28.73;;;-0.40;99.90;;;;;;5018842;28;20041;-74
2022/12/17 23:33:45;;;;;;;73.97;27.75;;;-2.60;99.90;;;;;;5019833;28;20510;-73
2022/12/17 23:36:15;;;;;;;68.72;27.58;;;-2.60;99.90;;;;;;5007195;28;20132;-74
2022/12/17 23:38:41;;;;;;;77.20;28.48;;;-1.20;99.90;;;;;;5005913;28;20038;-76
2022/12/17 23:41:19;;;;;;;72.47;28.67;;;-2.60;99.90;;;;;;5005749;28;20385;-74
2022/12/17 23:43:46;;;;;;;69.35;27.23;;;-2.50;99.90;;;;;;5035297;28;20056;-74
2022/12/17 23:46:12;;;;;;;76.82;29.67;;;-0.70;99.90;;;;;;4995117;28;20042;-73
2022/12/17 23:48:40;;;;;;;70.57;28.20;;;-2.40;99.90;;;;;;5023794;28;20438;-73
2022/12/17 23:51:06;;;;;;;70.45;28.92;;;-2.50;99.90;;;;;;5021062;28;20400;-73
2022/12/17 23:53:33;;;;;;;65.93;26.40;;;-2.50;99.90;;;;;;5010088;28;20079;-75
2022/12/17 23:56:07;;;;;;;70.18;27.35;;;-2.50;99.90;;;;;;5022594;28;20029;-75
2022/12/17 23:58:34;;;;;;;75.38;26.48;;;-2.50;99.90;;;;;;5024825;28;20037;-73
